Time;durP1;ratioP1;P1;durP2;ratioP2;P2;SDS_P1;SDS_P2;PMS_P1;PMS_P2;Temp;Humidity;BMP_temperature;BMP_pressure;BME280_temperature;BME280_humidity;BME280_pressure;Samples;Min_cycle;Max_cycle;Signal;HPM_P1;HPM_P2
2022/02/07 00:00:08;;;;;;;1042.40;972.88;;;;;;;5.59;70.05;98983.47;686009;28;138955;-68
2022/02/07 00:00:40;;;;;;;1041.05;971.55;;;;;;;5.63;70.02;98983.91;685451;28;137807;-68
2022/02/07 00:01:15;;;;;;;1045.40;975.75;;;;;;;5.60;70.00;98985.97;688037;28;67462;-68
2022/02/07 00:01:41;;;;;;;1045.32;975.55;;;;;;;5.63;69.87;98990.13;684566;28;155988;-68
2022/02/07 00:02:05;;;;;;;1048.47;978.67;;;;;;;5.65;70.15;98995.28;685193;28;159090;-68
2022/02/07 00:02:38;;;;;;;1053.15;982.95;;;;;;;5.66;69.87;98991.56;687275;28;89525;-68
2022/02/07 00:03:18;;;;;;;1044.13;974.50;;;;;;;5.64;69.82;98975.69;686019;28;137533;-68
2022/02/07 00:03:46;;;;;;;1047.43;977.28;;;;;;;5.58;70.10;98979.16;682570;28;160555;-68
2022/02/07 00:04:08;;;;;;;1039.57;970.00;;;;;;;5.57;69.97;98985.50;685660;28;137375;-68
2022/02/07 00:04:34;;;;;;;1038.85;969.55;;;;;;;5.58;70.03;98976.47;688345;28;46232;-68
2022/02/07 00:04:56;;;;;;;1035.50;966.30;;;;;;;5.58;70.24;98984.50;685527;28;136395;-68
2022/02/07 00:05:22;;;;;;;1035.93;966.72;;;;;;;5.57;70.12;98988.19;688948;28;46338;-68
2022/02/07 00:05:43;;;;;;;1035.38;966.28;;;;;;;5.54;70.13;98976.00;685571;28;138142;-68
2022/02/07 00:06:05;;;;;;;1032.57;963.58;;;;;;;5.54;69.96;98980.53;689102;28;44360;-68
2022/02/07 00:06:26;;;;;;;1032.28;963.28;;;;;;;5.52;69.93;98978.03;688288;28;46250;-68
2022/02/07 00:06:49;;;;;;;1034.65;965.58;;;;;;;5.52;70.27;98980.72;689800;28;21534;-68
2022/02/07 00:07:15;;;;;;;1034.60;965.47;;;;;;;5.53;70.41;98993.09;688731;28;46348;-69
2022/02/07 00:07:37;;;;;;;1038.82;969.42;;;;;;;5.54;70.44;98984.03;685661;28;137026;-68
2022/02/07 00:07:59;;;;;;;1038.65;969.22;;;;;;;5.55;70.43;98985.69;689561;28;22293;-68
2022/02/07 00:08:20;;;;;;;1037.18;967.88;;;;;;;5.57;70.50;98982.84;689153;28;46370;-68
2022/02/07 00:08:42;;;;;;;1032.32;963.33;;;;;;;5.57;70.45;98988.19;689931;28;22200;-68
2022/02/07 00:09:04;;;;;;;1035.63;966.42;;;;;;;5.59;70.41;98980.78;688962;28;44375;-68
2022/02/07 00:09:25;;;;;;;1036.57;967.38;;;;;;;5.61;70.47;98978.75;688981;28;42547;-68
2022/02/07 00:09:46;;;;;;;1032.13;963.22;;;;;;;5.62;70.46;98987.63;689841;28;22365;-68
2022/02/07 00:10:07;;;;;;;1029.00;960.20;;;;;;;5.63;70.72;98992.78;689811;28;22360;-68
2022/02/07 00:10:29;;;;;;;1036.10;966.95;;;;;;;5.63;70.61;98995.47;688667;28;45018;-68
2022/02/07 00:10:51;;;;;;;1039.40;969.90;;;;;;;5.63;70.74;98991.94;688907;28;46513;-68
2022/02/07 00:11:12;;;;;;;1039.68;970.17;;;;;;;5.60;70.52;98983.28;690249;28;23430;-68
2022/02/07 00:11:34;;;;;;;1042.82;973.22;;;;;;;5.63;70.50;98997.31;687573;28;66461;-68
2022/02/07 00:11:56;;;;;;;1049.20;979.60;;;;;;;5.63;70.60;98986.59;689823;28;22491;-68
2022/02/07 00:12:17;;;;;;;1041.47;971.92;;;;;;;5.65;70.81;98993.44;688648;28;69460;-68
2022/02/07 00:12:40;;;;;;;1042.70;973.20;;;;;;;5.62;70.79;98993.81;690133;28;23745;-68
2022/02/07 00:13:01;;;;;;;1042.32;972.72;;;;;;;5.66;70.77;99002.28;689050;28;44980;-68
2022/02/07 00:13:23;;;;;;;1041.20;971.80;;;;;;;5.64;70.60;98991.75;690153;28;21533;-68
2022/02/07 00:13:44;;;;;;;1040.55;970.80;;;;;;;5.63;70.60;98994.63;687075;28;47439;-68
2022/02/07 00:14:05;;;;;;;1039.03;969.40;;;;;;;5.66;70.45;98996.94;688818;28;45535;-68
2022/02/07 00:14:26;;;;;;;1039.63;970.22;;;;;;;5.64;70.57;98999.78;690145;28;22476;-68
2022/02/07 00:14:48;;;;;;;1040.57;971.17;;;;;;;5.63;70.29;99000.84;690498;28;22347;-68
2022/02/07 00:15:09;;;;;;;1040.32;970.92;;;;;;;5.62;70.39;99009.06;689623;28;44116;-68
2022/02/07 00:15:31;;;;;;;1041.05;971.65;;;;;;;5.58;70.30;99001.41;690045;28;21845;-68
2022/02/07 00:15:53;;;;;;;1039.70;970.30;;;;;;;5.58;70.43;99003.25;688958;28;44349;-68
2022/02/07 00:16:15;;;;;;;1039.30;969.90;;;;;;;5.58;70.45;99005.94;689198;28;23525;-68
2022/02/07 00:16:37;;;;;;;1036.60;967.30;;;;;;;5.58;70.42;99011.28;688335;28;69436;-68
2022/02/07 00:16:58;;;;;;;1036.13;966.95;;;;;;;5.57;70.67;99009.63;690324;28;21535;-68
2022/02/07 00:17:22;;;;;;;1036.50;967.30;;;;;;;5.56;70.63;99011.47;689138;28;46288;-68
2022/02/07 00:17:43;;;;;;;1038.75;969.40;;;;;;;5.57;70.52;99026.50;687972;28;70935;-68
2022/02/07 00:18:05;;;;;;;1034.90;965.65;;;;;;;5.58;70.72;99013.97;690104;28;23420;-68
2022/02/07 00:18:28;;;;;;;1034.70;965.55;;;;;;;5.58;70.72;99022.81;687317;28;2481;-68
2022/02/07 00:18:50;;;;;;;1036.47;967.28;;;;;;;5.60;70.96;99038.69;686814;28;34089;-68
2022/02/07 00:19:16;;;;;;;1032.72;963.60;;;;;;;5.64;70.80;99021.22;686079;28;47601;-68
2022/02/07 00:19:38;;;;;;;1034.90;965.80;;;;;;;5.64;70.78;99021.22;684626;28;137596;-67
2022/02/07 00:19:59;;;;;;;1035.63;966.53;;;;;;;5.65;70.46;99030.94;689370;28;24337;-68
2022/02/07 00:20:23;;;;;;;1036.38;967.17;;;;;;;5.68;70.52;99035.09;690656;28;1700;-68
2022/02/07 00:20:45;;;;;;;1033.18;964.15;;;;;;;5.69;70.65;99021.50;688471;28;69491;-68
2022/02/07 00:21:06;;;;;;;1035.93;966.83;;;;;;;5.66;70.40;99011.16;689267;28;46457;-68
2022/02/07 00:21:28;;;;;;;1035.15;965.97;;;;;;;5.68;70.36;99024.38;689864;28;4650;-68
2022/02/07 00:21:50;;;;;;;1037.45;968.25;;;;;;;5.68;70.46;99032.41;688690;28;45291;-68
2022/02/07 00:22:12;;;;;;;1036.50;967.30;;;;;;;5.65;70.31;99027.44;689262;28;46317;-68
2022/02/07 00:22:33;;;;;;;1036.95;967.65;;;;;;;5.64;70.36;99023.09;689056;28;44174;-68
2022/02/07 00:22:54;;;;;;;1034.15;965.05;;;;;;;5.63;70.23;99026.75;690218;28;23617;-68
2022/02/07 00:23:16;;;;;;;1028.82;960.10;;;;;;;5.60;70.36;99028.00;688604;28;21512;-68
2022/02/07 00:23:38;;;;;;;1033.30;964.30;;;;;;;5.59;70.49;99032.53;688153;28;46232;-68
2022/02/07 00:23:59;;;;;;;1036.30;967.15;;;;;;;5.58;70.35;99036.22;687927;28;46402;-68
2022/02/07 00:24:20;;;;;;;1036.82;967.63;;;;;;;5.57;70.50;99033.72;688484;28;22225;-68
2022/02/07 00:24:41;;;;;;;1036.40;967.20;;;;;;;5.55;70.07;99039.25;688468;28;21551;-68
2022/02/07 00:25:04;;;;;;;1037.43;968.22;;;;;;;5.53;70.35;99037.78;688627;28;22400;-68
2022/02/07 00:25:26;;;;;;;1038.22;968.83;;;;;;;5.53;70.14;99035.09;687008;28;92135;-68
2022/02/07 00:25:47;;;;;;;1032.75;963.65;;;;;;;5.51;70.25;99035.28;690530;28;23430;-66
2022/02/07 00:26:10;;;;;;;1034.15;965.05;;;;;;;5.52;70.42;99028.09;690173;28;21544;-66
2022/02/07 00:26:31;;;;;;;1033.55;964.45;;;;;;;5.50;70.26;99038.16;687716;28;70213;-67
2022/02/07 00:26:52;;;;;;;1033.45;964.35;;;;;;;5.48;70.25;99026.81;689420;28;23460;-68
2022/02/07 00:27:13;;;;;;;1035.65;966.55;;;;;;;5.49;70.26;99033.81;689740;28;22398;-68
2022/02/07 00:27:36;;;;;;;1036.82;967.63;;;;;;;5.49;70.20;99042.69;689351;28;21339;-67
2022/02/07 00:27:57;;;;;;;1037.60;968.30;;;;;;;5.49;70.48;99042.69;685439;28;69929;-67
2022/02/07 00:28:18;;;;;;;1039.68;970.28;;;;;;;5.48;70.15;99041.00;686172;28;45296;-68
2022/02/07 00:28:39;;;;;;;1038.22;968.90;;;;;;;5.46;70.14;99040.38;687069;28;22372;-69
2022/02/07 00:29:01;;;;;;;1037.60;968.35;;;;;;;5.44;70.09;99037.06;688503;28;23459;-67
2022/02/07 00:29:22;;;;;;;1037.82;968.53;;;;;;;5.40;70.13;99038.44;687713;28;45238;-68
2022/02/07 00:29:43;;;;;;;1036.82;967.60;;;;;;;5.39;69.56;99040.28;688565;28;21322;-68
2022/02/07 00:30:07;;;;;;;1036.15;966.95;;;;;;;5.38;69.73;99046.66;685898;28;22385;-67
2022/02/07 00:30:29;;;;;;;1037.63;968.33;;;;;;;5.39;70.01;99045.66;686404;28;92236;-69
2022/02/07 00:30:50;;;;;;;1039.10;969.63;;;;;;;5.39;70.01;99044.78;684465;28;46317;-68
2022/02/07 00:31:11;;;;;;;1035.57;966.40;;;;;;;5.41;69.99;99042.78;686254;28;22260;-68
2022/02/07 00:31:33;;;;;;;1036.75;967.45;;;;;;;5.40;69.96;99036.56;684877;28;22383;-67
2022/02/07 00:31:55;;;;;;;1038.85;969.55;;;;;;;5.36;69.90;99029.94;685291;28;45293;-68
2022/02/07 00:32:16;;;;;;;1036.78;967.60;;;;;;;5.35;69.65;99030.13;689138;28;1797;-67
2022/02/07 00:32:38;;;;;;;1036.10;966.90;;;;;;;5.34;69.63;99023.94;689611;28;21981;-67
2022/02/07 00:32:59;;;;;;;1035.20;966.10;;;;;;;5.29;69.46;99020.97;690067;28;44376;-69
2022/02/07 00:33:21;;;;;;;1041.03;971.03;;;;;;;5.28;69.35;99027.34;688346;28;23920;-68
2022/02/07 00:33:43;;;;;;;1035.55;966.38;;;;;;;5.23;69.59;99024.41;689237;28;44549;-68
2022/02/07 00:34:04;;;;;;;1031.57;962.58;;;;;;;5.22;69.36;99026.25;686888;28;24321;-68
2022/02/07 00:34:25;;;;;;;1036.18;967.03;;;;;;;5.17;69.50;99026.00;686251;28;45242;-68
2022/02/07 00:34:46;;;;;;;1037.50;968.22;;;;;;;5.18;69.56;99029.47;687016;28;21550;-68
2022/02/07 00:35:13;;;;;;;1035.60;966.40;;;;;;;5.15;69.47;99024.50;687540;28;22390;-68
2022/02/07 00:35:34;;;;;;;1033.78;964.67;;;;;;;5.12;69.63;99023.00;684901;28;138674;-68
2022/02/07 00:35:56;;;;;;;1037.07;967.88;;;;;;;5.14;69.74;99021.00;689358;28;22306;-68
2022/02/07 00:36:18;;;;;;;1036.18;966.97;;;;;;;5.11;69.45;99023.19;688431;28;44095;-68
2022/02/07 00:36:40;;;;;;;1035.03;965.83;;;;;;;5.11;69.75;99023.19;687717;28;68584;-68
2022/02/07 00:37:04;;;;;;;1032.95;963.95;;;;;;;5.12;69.75;99019.50;686821;28;23492;-69
2022/02/07 00:37:28;;;;;;;1029.05;960.25;;;;;;;5.09;70.08;99014.53;685550;28;69181;-68
2022/02/07 00:37:51;;;;;;;1027.85;959.05;;;;;;;5.11;69.92;99021.38;685034;28;115072;-69
2022/02/07 00:38:17;;;;;;;1037.43;968.22;;;;;;;5.09;70.11;99019.88;688097;28;67470;-68
2022/02/07 00:38:40;;;;;;;1038.30;969.10;;;;;;;5.11;69.92;99023.19;685664;28;138117;-68
2022/02/07 00:39:08;;;;;;;1038.63;969.35;;;;;;;5.09;69.99;99022.56;689670;28;67604;-69
2022/02/07 00:39:37;;;;;;;1040.25;970.78;;;;;;;5.07;70.18;99016.56;685368;28;136246;-68
2022/02/07 00:40:05;;;;;;;1038.47;969.17;;;;;;;5.05;70.08;99022.91;683161;28;134882;-68
2022/02/07 00:40:41;;;;;;;1040.75;971.35;;;;;;;5.06;70.08;99037.13;684340;28;90684;-68
2022/02/07 00:41:15;;;;;;;1037.82;968.65;;;;;;;5.05;70.09;99027.44;682715;28;138623;-68
2022/02/07 00:41:42;;;;;;;1033.68;964.65;;;;;;;5.02;69.73;99034.00;683950;28;157129;-68
2022/02/07 00:42:07;;;;;;;1033.45;964.45;;;;;;;5.00;70.03;99038.69;685863;28;138298;-68
2022/02/07 00:42:33;;;;;;;1032.80;963.70;;;;;;;4.95;70.14;99027.69;688236;28;59733;-68
2022/02/07 00:42:57;;;;;;;1035.18;966.08;;;;;;;5.00;70.34;99038.69;686537;28;115982;-68
2022/02/07 00:43:36;;;;;;;1046.72;976.33;;;;;;;5.00;70.41;99037.84;682100;28;115437;-69
2022/02/07 00:43:59;;;;;;;1027.93;959.20;;;;;;;5.02;70.45;99039.34;683277;28;137611;-68
2022/02/07 00:44:20;;;;;;;1033.28;964.28;;;;;;;5.03;70.34;99033.00;686589;28;69283;-68
2022/02/07 00:44:41;;;;;;;1044.90;975.30;;;;;;;5.02;70.12;99042.03;689789;28;23464;-68
2022/02/07 00:45:14;;;;;;;1043.10;973.60;;;;;;;5.04;70.38;99045.34;689398;28;22243;-69
2022/02/07 00:45:41;;;;;;;1044.43;974.85;;;;;;;5.03;69.97;99040.16;685384;28;138666;-68
2022/02/07 00:46:09;;;;;;;1040.93;971.63;;;;;;;5.02;70.06;99044.69;685548;28;138036;-68
2022/02/07 00:46:35;;;;;;;1032.15;963.25;;;;;;;5.00;69.87;99038.69;679624;28;139422;-68
2022/02/07 00:46:58;;;;;;;1033.55;964.65;;;;;;;4.98;69.77;99043.38;679649;28;137998;-68
2022/02/07 00:47:19;;;;;;;1036.80;967.78;;;;;;;5.00;70.00;99048.56;684117;28;69453;-68
2022/02/07 00:47:40;;;;;;;1038.63;969.40;;;;;;;4.97;70.05;99047.09;685150;28;24299;-68
2022/02/07 00:48:02;;;;;;;1034.45;965.35;;;;;;;4.97;69.95;99033.72;682884;28;23479;-68
2022/02/07 00:48:29;;;;;;;1032.55;963.65;;;;;;;5.00;70.28;99051.22;681368;28;138352;-67
2022/02/07 00:48:51;;;;;;;1026.93;958.20;;;;;;;5.01;70.28;99051.03;686723;28;1601;-68
2022/02/07 00:49:12;;;;;;;1028.45;959.65;;;;;;;5.02;70.35;99047.38;686890;28;22495;-69
2022/02/07 00:49:34;;;;;;;1031.57;962.75;;;;;;;5.00;70.30;99049.41;687099;28;23424;-69
2022/02/07 00:49:56;;;;;;;1022.75;954.25;;;;;;;5.02;70.50;99042.03;684441;28;69692;-68
2022/02/07 00:50:18;;;;;;;1023.13;954.60;;;;;;;5.03;70.09;99049.03;684651;28;10773;-68
2022/02/07 00:50:40;;;;;;;1039.32;969.97;;;;;;;5.04;70.39;99056.03;684301;28;45301;-68
2022/02/07 00:51:04;;;;;;;1031.32;962.30;;;;;;;5.04;70.21;99057.88;682814;28;67463;-68
2022/02/07 00:51:25;;;;;;;1037.40;968.10;;;;;;;5.05;70.36;99051.53;681744;28;69159;-69
2022/02/07 00:51:47;;;;;;;1039.38;970.05;;;;;;;5.07;70.12;99062.88;684053;28;23430;-68
2022/02/07 00:52:10;;;;;;;1033.70;964.55;;;;;;;5.09;70.11;99068.03;683409;28;46343;-68
2022/02/07 00:52:32;;;;;;;1037.75;968.45;;;;;;;5.08;70.16;99067.22;682598;28;69425;-68
2022/02/07 00:52:53;;;;;;;1036.50;967.40;;;;;;;5.08;70.09;99067.22;684620;28;46355;-68
2022/02/07 00:53:14;;;;;;;1034.32;965.33;;;;;;;5.09;69.96;99070.72;683215;28;23452;-69
2022/02/07 00:53:41;;;;;;;1031.68;962.80;;;;;;;5.08;70.07;99075.25;680827;28;138337;-68
2022/02/07 00:54:02;;;;;;;1027.55;958.80;;;;;;;5.06;69.67;99074.59;683410;28;47147;-69
2022/02/07 00:54:23;;;;;;;1023.05;954.45;;;;;;;5.09;69.99;99082.25;686107;28;22430;-68
2022/02/07 00:54:44;;;;;;;1027.18;958.58;;;;;;;5.10;69.79;99083.09;685219;28;22386;-69
2022/02/07 00:55:07;;;;;;;1032.65;963.85;;;;;;;5.08;69.65;99077.06;686535;28;46295;-69
2022/02/07 00:55:29;;;;;;;1029.78;961.08;;;;;;;5.07;69.79;99073.59;685167;28;70186;-68
2022/02/07 00:55:50;;;;;;;1025.47;956.92;;;;;;;5.08;69.78;99082.44;685465;28;22444;-68
2022/02/07 00:56:11;;;;;;;1031.72;962.95;;;;;;;5.05;69.84;99081.78;685214;28;21542;-68
2022/02/07 00:56:33;;;;;;;1027.93;959.25;;;;;;;5.05;69.76;99080.97;682347;28;21523;-68
2022/02/07 00:56:54;;;;;;;1029.93;961.22;;;;;;;5.02;69.74;99084.81;678620;29;44217;-68
2022/02/07 00:57:16;;;;;;;1032.65;963.88;;;;;;;5.02;69.59;99090.19;676547;29;44049;-68
2022/02/07 00:57:37;;;;;;;1035.60;966.63;;;;;;;5.02;69.65;99084.81;680445;29;22403;-68
2022/02/07 00:58:00;;;;;;;1032.68;963.78;;;;;;;5.01;69.63;99080.47;681325;28;45242;-68
2022/02/07 00:58:21;;;;;;;1028.53;959.72;;;;;;;5.03;69.83;99091.84;681174;28;46308;-68
2022/02/07 00:58:42;;;;;;;1026.75;958.05;;;;;;;5.03;69.71;99077.63;684694;28;23646;-69
2022/02/07 00:59:07;;;;;;;1033.03;963.97;;;;;;;5.01;69.82;99091.19;681516;28;92263;-68
2022/02/07 00:59:28;;;;;;;1032.05;963.05;;;;;;;5.01;69.60;99095.72;682371;28;46264;-68
2022/02/07 00:59:49;;;;;;;1030.70;961.92;;;;;;;5.03;69.67;99097.22;681650;28;45201;-68
2022/02/07 01:00:11;;;;;;;1034.60;965.60;;;;;;;5.02;69.92;99094.72;682127;28;23395;-68
2022/02/07 01:00:35;;;;;;;1033.80;964.90;;;;;;;5.00;69.66;99094.88;679398;28;92083;-68
2022/02/07 01:00:57;;;;;;;1034.38;965.33;;;;;;;5.02;69.75;99097.38;679687;29;22140;-68
2022/02/07 01:01:27;;;;;;;1044.50;974.90;;;;;;;5.02;69.95;99100.88;676030;28;138516;-68
2022/02/07 01:01:49;;;;;;;1036.10;966.95;;;;;;;5.06;69.62;99101.34;678045;29;114984;-69
2022/02/07 01:02:11;;;;;;;1032.82;963.72;;;;;;;5.07;69.67;99100.34;678078;29;46239;-68
2022/02/07 01:02:33;;;;;;;1038.43;969.13;;;;;;;5.08;69.52;99104.69;677064;29;62589;-68
2022/02/07 01:02:54;;;;;;;1038.72;969.42;;;;;;;5.05;69.53;99100.53;678615;29;22343;-68
2022/02/07 01:03:17;;;;;;;1038.25;968.97;;;;;;;5.06;69.57;99106.69;680460;29;22407;-68
2022/02/07 01:03:39;;;;;;;1034.53;965.40;;;;;;;5.07;69.61;99103.00;681733;28;43904;-68
2022/02/07 01:04:00;;;;;;;1036.47;967.28;;;;;;;5.04;69.54;99098.84;684035;28;43719;-68
2022/02/07 01:04:29;;;;;;;1037.85;968.65;;;;;;;5.07;69.63;99104.88;683145;28;137610;-69
2022/02/07 01:05:00;;;;;;;1036.38;967.28;;;;;;;5.04;69.48;99104.19;684274;28;137532;-68
2022/02/07 01:05:22;;;;;;;1037.30;967.97;;;;;;;5.08;69.29;99109.19;686327;28;22554;-68
2022/02/07 01:05:44;;;;;;;1041.30;971.70;;;;;;;5.08;69.19;99117.22;682971;28;68897;-68
2022/02/07 01:06:09;;;;;;;1041.95;972.45;;;;;;;5.07;69.37;99116.41;680588;28;138158;-68
2022/02/07 01:06:32;;;;;;;1039.85;970.35;;;;;;;5.08;69.25;99114.53;685666;28;22373;-68
2022/02/07 01:07:02;;;;;;;1040.93;971.50;;;;;;;5.08;69.25;99118.06;681849;28;159635;-68
2022/02/07 01:07:27;;;;;;;1034.47;965.28;;;;;;;5.08;69.26;99120.75;683496;28;115159;-68
2022/02/07 01:07:51;;;;;;;1035.07;965.83;;;;;;;5.09;69.25;99124.25;681708;28;92102;-68
2022/02/07 01:08:25;;;;;;;1038.07;968.88;;;;;;;5.08;68.81;99114.53;677701;29;137832;-68
2022/02/07 01:08:51;;;;;;;1034.55;965.42;;;;;;;5.07;68.74;99120.94;675420;29;138544;-68
2022/02/07 01:09:31;;;;;;;1031.78;962.78;;;;;;;5.02;68.87;99116.13;679033;28;158419;-68
2022/02/07 01:09:54;;;;;;;1035.22;966.13;;;;;;;5.04;69.06;99120.25;682982;28;137841;-68
2022/02/07 01:10:27;;;;;;;1036.35;967.15;;;;;;;5.04;69.01;99130.97;682514;28;139440;-68
2022/02/07 01:10:56;;;;;;;1036.63;967.42;;;;;;;5.04;68.80;99124.78;682762;28;137599;-68
2022/02/07 01:11:33;;;;;;;1032.97;963.88;;;;;;;5.04;68.87;99122.94;682486;28;137317;-68
2022/02/07 01:12:04;;;;;;;1040.85;971.50;;;;;;;5.02;68.60;99119.63;683942;28;160706;-69
2022/02/07 01:13:10;;;;;;;1031.50;962.60;;;;;;;4.99;68.39;99132.53;686612;28;160772;-68
2022/02/07 01:14:07;;;;;;;1028.85;960.08;;;;;;;4.95;68.66;99129.38;684708;28;137685;-68
2022/02/07 01:14:41;;;;;;;1035.15;966.15;;;;;;;4.93;68.69;99130.56;682308;28;160142;-68
2022/02/07 01:15:13;;;;;;;1033.97;965.05;;;;;;;4.95;68.74;99133.91;680170;28;137846;-69
2022/02/07 01:15:45;;;;;;;1034.78;965.67;;;;;;;4.93;68.92;99134.06;678662;28;137575;-69
2022/02/07 01:17:02;;;;;;;1035.88;966.80;;;;;;;4.92;68.79;99135.09;673406;29;157548;-69
2022/02/07 01:19:02;;;;;;;1034.55;965.55;;;;;;;4.90;68.98;99122.91;681525;28;136885;-68
2022/02/07 01:20:44;;;;;;;1038.47;969.38;;;;;;;4.98;68.90;99138.88;678855;28;160915;-68
2022/02/07 01:21:38;;;;;;;1033.78;964.88;;;;;;;4.97;69.07;99148.75;680461;28;136300;-68
2022/02/07 01:24:03;;;;;;;1034.13;965.13;;;;;;;4.98;68.28;99145.06;669494;29;137616;-68
2022/02/07 01:46:23;;;;;;;1049.80;979.90;;;;;;;4.91;67.67;99162.84;689913;28;62171;-68
2022/02/07 01:47:32;;;;;;;1050.68;980.78;;;;;;;4.91;67.73;99172.75;683330;28;157170;-68
2022/02/07 01:48:11;;;;;;;1041.97;972.38;;;;;;;4.90;67.71;99168.38;685646;28;138220;-69
2022/02/07 01:49:00;;;;;;;1045.05;975.35;;;;;;;4.87;67.43;99172.25;685654;28;135764;-69
2022/02/07 01:49:44;;;;;;;1052.38;982.22;;;;;;;4.90;67.65;99181.75;686524;28;160701;-69
2022/02/07 01:50:30;;;;;;;1042.93;973.42;;;;;;;4.90;67.42;99171.06;681738;28;137803;-69
2022/02/07 01:51:03;;;;;;;1046.07;976.47;;;;;;;4.88;67.18;99179.25;683060;28;136142;-69
2022/02/07 01:51:40;;;;;;;1045.50;975.75;;;;;;;4.89;67.44;99178.25;682074;28;137494;-69
2022/02/07 01:52:18;;;;;;;1044.80;975.17;;;;;;;4.88;66.94;99185.44;682007;28;137592;-68
2022/02/07 01:52:54;;;;;;;1049.00;979.28;;;;;;;4.88;67.26;99187.28;682637;28;161170;-68
2022/02/07 01:53:28;;;;;;;1050.75;980.83;;;;;;;4.86;67.32;99186.66;683705;28;83000;-68
2022/02/07 01:54:12;;;;;;;1043.78;974.28;;;;;;;4.89;67.54;99186.28;680171;28;135864;-69
2022/02/07 01:54:43;;;;;;;1049.97;980.05;;;;;;;4.88;67.67;99185.44;681959;28;137986;-69
2022/02/07 01:55:15;;;;;;;1052.18;982.13;;;;;;;4.88;67.58;99189.97;680081;28;136113;-69
2022/02/07 01:55:40;;;;;;;1054.25;984.05;;;;;;;4.88;67.22;99184.63;682058;28;137403;-68
2022/02/07 01:56:07;;;;;;;1054.43;984.22;;;;;;;4.90;67.60;99197.81;679749;28;137732;-68
2022/02/07 01:56:35;;;;;;;1054.82;984.63;;;;;;;4.93;67.63;99210.84;674370;29;180255;-68
2022/02/07 01:56:56;;;;;;;1056.90;986.55;;;;;;;4.95;67.76;99201.59;678020;29;69445;-68
2022/02/07 01:57:18;;;;;;;1056.60;986.30;;;;;;;4.90;67.24;99190.59;679851;28;46431;-68
2022/02/07 01:57:46;;;;;;;1057.90;987.40;;;;;;;4.93;67.42;99194.78;679079;29;92183;-68
2022/02/07 01:58:09;;;;;;;1059.18;988.67;;;;;;;4.90;67.05;99197.81;677546;28;138148;-68
2022/02/07 01:58:31;;;;;;;1056.32;986.13;;;;;;;4.88;67.04;99201.50;678594;29;69386;-69
2022/02/07 01:58:52;;;;;;;1059.75;989.22;;;;;;;4.89;67.08;99205.03;681297;29;22397;-69
2022/02/07 01:59:17;;;;;;;1059.68;989.08;;;;;;;4.90;67.27;99200.50;678629;29;90693;-69
2022/02/07 01:59:39;;;;;;;1054.97;984.70;;;;;;;4.92;67.32;99198.47;680931;28;46378;-69
2022/02/07 02:00:00;;;;;;;1058.47;988.00;;;;;;;4.94;67.58;99199.13;679248;29;45287;-69
2022/02/07 02:00:23;;;;;;;1061.15;990.53;;;;;;;4.96;67.37;99215.84;680382;28;46461;-68
2022/02/07 02:00:52;;;;;;;1053.60;983.40;;;;;;;4.94;67.35;99204.50;677554;28;136097;-69
2022/02/07 02:01:13;;;;;;;1055.20;984.90;;;;;;;4.92;67.49;99202.00;680841;28;21564;-69
2022/02/07 02:01:37;;;;;;;1055.88;985.58;;;;;;;4.91;66.97;99200.31;680391;29;21479;-69
2022/02/07 02:01:58;;;;;;;1049.97;979.97;;;;;;;4.91;67.35;99207.53;681348;28;92092;-69
2022/02/07 02:02:19;;;;;;;1054.68;984.40;;;;;;;4.92;67.33;99210.00;682853;28;23410;-69
2022/02/07 02:02:40;;;;;;;1057.28;986.95;;;;;;;4.92;67.23;99215.38;683496;28;22554;-69
2022/02/07 02:03:01;;;;;;;1055.25;985.05;;;;;;;4.89;66.97;99221.06;683986;28;44344;-68
2022/02/07 02:03:46;;;;;;;1050.53;980.92;;;;;;;4.95;67.44;99208.81;679698;28;136038;-68
2022/02/07 02:04:08;;;;;;;1054.38;984.17;;;;;;;4.95;67.33;99198.09;684131;28;44532;-69
2022/02/07 02:04:29;;;;;;;1054.63;984.42;;;;;;;4.93;66.99;99218.88;685587;28;45281;-69
2022/02/07 02:04:51;;;;;;;1052.72;982.60;;;;;;;4.90;66.85;99217.38;685298;28;21527;-69
2022/02/07 02:05:24;;;;;;;1057.13;986.83;;;;;;;4.90;66.92;99219.22;679838;28;137219;-69
2022/02/07 02:05:46;;;;;;;1065.32;994.65;;;;;;;4.88;66.90;99222.06;680030;28;61738;-69
2022/02/07 02:06:17;;;;;;;1060.47;990.00;;;;;;;4.87;67.07;99213.22;676688;28;137417;-69
2022/02/07 02:06:51;;;;;;;1058.28;987.88;;;;;;;4.90;67.12;99212.00;679239;28;137712;-69
2022/02/07 02:07:20;;;;;;;1057.40;987.10;;;;;;;4.88;66.97;99216.72;679669;28;137846;-69
2022/02/07 02:07:42;;;;;;;1061.30;990.80;;;;;;;4.87;66.88;99228.41;685570;28;22383;-69
2022/02/07 02:08:05;;;;;;;1061.60;991.00;;;;;;;4.85;66.78;99217.91;681720;28;90320;-69
2022/02/07 02:08:27;;;;;;;1060.00;989.70;;;;;;;4.84;66.94;99210.03;681072;28;23472;-69
2022/02/07 02:08:51;;;;;;;1058.05;987.83;;;;;;;4.85;67.07;99214.41;682051;28;69983;-69
2022/02/07 02:09:13;;;;;;;1059.43;988.90;;;;;;;4.85;67.03;99215.22;682553;28;89862;-68
2022/02/07 02:09:35;;;;;;;1055.28;985.03;;;;;;;4.82;66.88;99218.25;685893;28;46409;-68
2022/02/07 02:09:58;;;;;;;1059.97;989.65;;;;;;;4.83;66.78;99216.44;684341;28;67471;-69
2022/02/07 02:10:20;;;;;;;1063.45;993.00;;;;;;;4.82;66.73;99223.59;687069;28;22230;-69
2022/02/07 02:10:44;;;;;;;1057.50;987.17;;;;;;;4.81;66.73;99224.63;683290;28;46317;-69
2022/02/07 02:11:09;;;;;;;1054.45;984.15;;;;;;;4.82;66.74;99220.91;680138;28;137781;-69
2022/02/07 02:11:34;;;;;;;1065.57;994.88;;;;;;;4.83;67.14;99222.59;681010;28;69095;-69
2022/02/07 02:11:57;;;;;;;1069.25;998.35;;;;;;;4.86;67.24;99218.75;678498;28;92019;-68
2022/02/07 02:12:27;;;;;;;1065.30;994.65;;;;;;;4.85;67.02;99227.78;675597;28;159156;-68
2022/02/07 02:12:57;;;;;;;1066.35;995.55;;;;;;;4.83;66.90;99230.63;681719;28;61749;-68
2022/02/07 02:13:23;;;;;;;1055.82;985.40;;;;;;;4.83;66.99;99219.94;679366;28;138079;-69
2022/02/07 02:13:59;;;;;;;1057.07;986.67;;;;;;;4.87;67.16;99236.44;680279;28;135489;-69
2022/02/07 02:14:45;;;;;;;1055.35;985.17;;;;;;;4.89;67.61;99226.41;682966;28;94421;-69
2022/02/07 02:15:22;;;;;;;1050.18;980.10;;;;;;;4.87;67.32;99237.31;679227;28;160262;-69
2022/02/07 02:15:49;;;;;;;1051.68;981.67;;;;;;;4.89;67.23;99229.09;680378;28;110824;-69
2022/02/07 02:16:18;;;;;;;1055.75;985.50;;;;;;;4.89;67.12;99234.44;677382;28;136353;-68
2022/02/07 02:16:55;;;;;;;1056.80;986.40;;;;;;;4.89;67.11;99234.44;678619;28;157374;-68
2022/02/07 02:17:51;;;;;;;1052.47;982.38;;;;;;;4.85;66.74;99233.13;681558;28;137542;-69
2022/02/07 02:20:09;;;;;;;1038.88;970.60;;;;;;;4.90;67.00;99249.47;683214;28;137335;-68
2022/02/07 02:21:12;;;;;;;1056.55;986.15;;;;;;;4.93;67.26;99259.00;682823;28;138410;-68
2022/02/07 02:22:40;;;;;;;1055.10;984.80;;;;;;;4.97;67.40;99250.44;684218;28;136005;-69
2022/02/07 02:33:14;;;;;;;1049.82;979.72;;;;;;;4.75;66.58;99278.81;684091;28;137805;-68
2022/02/07 02:35:01;;;;;;;1054.38;984.08;;;;;;;4.72;66.80;99286.34;682343;28;137227;-68
2022/02/07 02:36:38;;;;;;;1052.07;982.08;;;;;;;4.72;66.78;99294.38;680880;28;60930;-68
2022/02/07 02:37:10;;;;;;;1053.90;983.63;;;;;;;4.74;67.18;99300.41;679826;28;137532;-68
2022/02/07 02:37:45;;;;;;;1049.50;979.30;;;;;;;4.71;67.11;99300.75;680792;28;138061;-69
2022/02/07 02:38:11;;;;;;;1049.45;979.70;;;;;;;4.74;67.37;99297.72;678830;28;136011;-68
2022/02/07 02:38:48;;;;;;;1052.22;982.03;;;;;;;4.75;67.03;99304.72;679757;28;138149;-68
2022/02/07 02:46:21;;;;;;;1055.88;985.47;;;;;;;4.69;66.69;99330.34;682012;28;158781;-68
2022/02/07 02:46:46;;;;;;;1057.95;987.45;;;;;;;4.68;66.78;99329.47;683983;28;138399;-68
2022/02/07 02:47:11;;;;;;;1056.55;986.17;;;;;;;4.69;66.83;99328.50;685726;28;92343;-68